sensor_id;sensor_type;location;lat;lon;timestamp;P1;durP1;ratioP1;P2;durP2;ratioP2
19339;SDS011;9804;52.350;6.684;2023-08-31T00:00:49;7.18;;;3.00;;
19339;SDS011;9804;52.350;6.684;2023-08-31T00:03:16;9.30;;;3.70;;
19339;SDS011;9804;52.350;6.684;2023-08-31T00:05:42;5.80;;;2.63;;
19339;SDS011;9804;52.350;6.684;2023-08-31T00:08:08;7.85;;;3.58;;
19339;SDS011;9804;52.350;6.684;2023-08-31T00:10:34;4.80;;;2.63;;
19339;SDS011;9804;52.350;6.684;2023-08-31T00:13:03;3.03;;;2.38;;
19339;SDS011;9804;52.350;6.684;2023-08-31T00:15:29;3.00;;;2.40;;
19339;SDS011;9804;52.350;6.684;2023-08-31T00:17:57;7.28;;;2.88;;
19339;SDS011;9804;52.350;6.684;2023-08-31T00:20:23;7.50;;;2.70;;
19339;SDS011;9804;52.350;6.684;2023-08-31T00:22:49;6.18;;;2.80;;
19339;SDS011;9804;52.350;6.684;2023-08-31T00:25:14;4.15;;;2.70;;
19339;SDS011;9804;52.350;6.684;2023-08-31T00:27:40;7.30;;;2.65;;
19339;SDS011;9804;52.350;6.684;2023-08-31T00:30:09;6.65;;;2.58;;
19339;SDS011;9804;52.350;6.684;2023-08-31T00:32:36;11.43;;;3.33;;
19339;SDS011;9804;52.350;6.684;2023-08-31T00:35:04;4.32;;;2.70;;
19339;SDS011;9804;52.350;6.684;2023-08-31T00:37:30;4.88;;;2.80;;
19339;SDS011;9804;52.350;6.684;2023-08-31T00:39:55;5.22;;;2.78;;
19339;SDS011;9804;52.350;6.684;2023-08-31T00:42:20;6.45;;;2.53;;
19339;SDS011;9804;52.350;6.684;2023-08-31T00:44:46;6.68;;;3.35;;
19339;SDS011;9804;52.350;6.684;2023-08-31T00:47:12;4.00;;;2.58;;
19339;SDS011;9804;52.350;6.684;2023-08-31T00:49:39;6.72;;;2.90;;
19339;SDS011;9804;52.350;6.684;2023-08-31T00:52:05;6.78;;;2.72;;
19339;SDS011;9804;52.350;6.684;2023-08-31T00:54:31;3.53;;;2.45;;
19339;SDS011;9804;52.350;6.684;2023-08-31T00:56:57;4.43;;;2.42;;
19339;SDS011;9804;52.350;6.684;2023-08-31T00:59:23;5.07;;;2.72;;
19339;SDS011;9804;52.350;6.684;2023-08-31T01:01:58;4.53;;;3.05;;
19339;SDS011;9804;52.350;6.684;2023-08-31T01:10:12;4.57;;;2.53;;
19339;SDS011;9804;52.350;6.684;2023-08-31T01:12:52;5.75;;;2.60;;
19339;SDS011;9804;52.350;6.684;2023-08-31T01:15:23;6.95;;;2.80;;
19339;SDS011;9804;52.350;6.684;2023-08-31T01:17:50;4.53;;;2.50;;
19339;SDS011;9804;52.350;6.684;2023-08-31T01:20:19;4.07;;;2.40;;
19339;SDS011;9804;52.350;6.684;2023-08-31T01:22:58;4.38;;;2.38;;
19339;SDS011;9804;52.350;6.684;2023-08-31T01:25:31;4.65;;;2.55;;
19339;SDS011;9804;52.350;6.684;2023-08-31T01:27:58;5.68;;;2.47;;
19339;SDS011;9804;52.350;6.684;2023-08-31T01:30:24;3.85;;;2.45;;
19339;SDS011;9804;52.350;6.684;2023-08-31T01:32:49;4.43;;;2.55;;
19339;SDS011;9804;52.350;6.684;2023-08-31T01:35:16;4.50;;;2.60;;
19339;SDS011;9804;52.350;6.684;2023-08-31T01:37:44;6.40;;;2.70;;
19339;SDS011;9804;52.350;6.684;2023-08-31T01:40:17;4.93;;;2.50;;
19339;SDS011;9804;52.350;6.684;2023-08-31T01:42:48;4.20;;;2.47;;
19339;SDS011;9804;52.350;6.684;2023-08-31T01:45:15;3.83;;;2.55;;
19339;SDS011;9804;52.350;6.684;2023-08-31T01:47:45;3.92;;;2.78;;
19339;SDS011;9804;52.350;6.684;2023-08-31T01:50:11;6.10;;;2.95;;
19339;SDS011;9804;52.350;6.684;2023-08-31T01:52:36;3.80;;;2.85;;
19339;SDS011;9804;52.350;6.684;2023-08-31T01:55:02;4.13;;;2.90;;
19339;SDS011;9804;52.350;6.684;2023-08-31T01:57:28;4.35;;;3.10;;
19339;SDS011;9804;52.350;6.684;2023-08-31T01:59:54;4.68;;;2.88;;
19339;SDS011;9804;52.350;6.684;2023-08-31T02:02:19;4.53;;;3.47;;
19339;SDS011;9804;52.350;6.684;2023-08-31T02:04:44;3.63;;;3.20;;
19339;SDS011;9804;52.350;6.684;2023-08-31T02:07:11;5.47;;;3.58;;
19339;SDS011;9804;52.350;6.684;2023-08-31T02:09:36;6.28;;;3.38;;
19339;SDS011;9804;52.350;6.684;2023-08-31T02:12:02;4.50;;;3.58;;
19339;SDS011;9804;52.350;6.684;2023-08-31T02:14:29;5.28;;;3.90;;
19339;SDS011;9804;52.350;6.684;2023-08-31T02:16:55;5.90;;;3.92;;
19339;SDS011;9804;52.350;6.684;2023-08-31T02:19:20;7.35;;;4.90;;
19339;SDS011;9804;52.350;6.684;2023-08-31T02:21:45;6.60;;;4.32;;
19339;SDS011;9804;52.350;6.684;2023-08-31T02:24:14;8.70;;;5.43;;
19339;SDS011;9804;52.350;6.684;2023-08-31T02:26:39;10.50;;;5.20;;
19339;SDS011;9804;52.350;6.684;2023-08-31T02:29:05;8.60;;;4.72;;
19339;SDS011;9804;52.350;6.684;2023-08-31T02:31:30;7.95;;;5.47;;
19339;SDS011;9804;52.350;6.684;2023-08-31T02:33:55;10.50;;;5.70;;
19339;SDS011;9804;52.350;6.684;2023-08-31T02:36:21;8.13;;;5.88;;
19339;SDS011;9804;52.350;6.684;2023-08-31T02:38:46;7.53;;;5.90;;
19339;SDS011;9804;52.350;6.684;2023-08-31T02:41:12;8.35;;;6.15;;
19339;SDS011;9804;52.350;6.684;2023-08-31T02:43:38;9.80;;;6.45;;
19339;SDS011;9804;52.350;6.684;2023-08-31T02:46:04;9.20;;;6.43;;
19339;SDS011;9804;52.350;6.684;2023-08-31T02:48:29;11.35;;;7.63;;
19339;SDS011;9804;52.350;6.684;2023-08-31T02:50:58;10.15;;;7.10;;
19339;SDS011;9804;52.350;6.684;2023-08-31T02:53:26;11.05;;;7.38;;
19339;SDS011;9804;52.350;6.684;2023-08-31T02:55:52;9.50;;;7.82;;
19339;SDS011;9804;52.350;6.684;2023-08-31T02:58:17;10.30;;;8.30;;
19339;SDS011;9804;52.350;6.684;2023-08-31T03:00:44;13.02;;;8.88;;
19339;SDS011;9804;52.350;6.684;2023-08-31T03:03:12;10.73;;;8.27;;
19339;SDS011;9804;52.350;6.684;2023-08-31T03:05:38;12.13;;;9.15;;
19339;SDS011;9804;52.350;6.684;2023-08-31T03:08:04;12.00;;;9.93;;
19339;SDS011;9804;52.350;6.684;2023-08-31T03:10:30;15.27;;;9.82;;
19339;SDS011;9804;52.350;6.684;2023-08-31T03:12:55;14.02;;;9.25;;
19339;SDS011;9804;52.350;6.684;2023-08-31T03:15:20;14.27;;;10.25;;
19339;SDS011;9804;52.350;6.684;2023-08-31T03:17:46;14.82;;;10.00;;
19339;SDS011;9804;52.350;6.684;2023-08-31T03:20:11;14.18;;;9.63;;
19339;SDS011;9804;52.350;6.684;2023-08-31T03:22:36;10.18;;;8.93;;
19339;SDS011;9804;52.350;6.684;2023-08-31T03:25:02;14.05;;;9.27;;
19339;SDS011;9804;52.350;6.684;2023-08-31T03:27:27;13.05;;;9.32;;
19339;SDS011;9804;52.350;6.684;2023-08-31T03:29:53;12.38;;;9.23;;
19339;SDS011;9804;52.350;6.684;2023-08-31T03:32:18;15.75;;;10.52;;
19339;SDS011;9804;52.350;6.684;2023-08-31T03:34:44;11.35;;;9.15;;
19339;SDS011;9804;52.350;6.684;2023-08-31T03:37:09;16.15;;;10.70;;
19339;SDS011;9804;52.350;6.684;2023-08-31T03:39:35;11.85;;;9.52;;
19339;SDS011;9804;52.350;6.684;2023-08-31T03:42:02;13.77;;;9.57;;
19339;SDS011;9804;52.350;6.684;2023-08-31T03:44:27;11.60;;;8.20;;
19339;SDS011;9804;52.350;6.684;2023-08-31T03:46:53;12.38;;;8.95;;
19339;SDS011;9804;52.350;6.684;2023-08-31T03:49:18;15.52;;;9.02;;
19339;SDS011;9804;52.350;6.684;2023-08-31T03:51:43;11.40;;;8.15;;
19339;SDS011;9804;52.350;6.684;2023-08-31T03:54:09;9.52;;;7.88;;
19339;SDS011;9804;52.350;6.684;2023-08-31T03:56:34;9.70;;;7.50;;
19339;SDS011;9804;52.350;6.684;2023-08-31T03:59:01;12.15;;;8.32;;
19339;SDS011;9804;52.350;6.684;2023-08-31T04:01:28;15.57;;;8.27;;
19339;SDS011;9804;52.350;6.684;2023-08-31T04:03:54;13.75;;;8.55;;
19339;SDS011;9804;52.350;6.684;2023-08-31T04:06:19;15.10;;;9.38;;
19339;SDS011;9804;52.350;6.684;2023-08-31T04:08:44;13.52;;;9.50;;
19339;SDS011;9804;52.350;6.684;2023-08-31T04:11:10;12.90;;;9.63;;
19339;SDS011;9804;52.350;6.684;2023-08-31T04:13:35;14.00;;;9.82;;
19339;SDS011;9804;52.350;6.684;2023-08-31T04:16:00;15.40;;;10.82;;
19339;SDS011;9804;52.350;6.684;2023-08-31T04:18:26;17.98;;;11.10;;
19339;SDS011;9804;52.350;6.684;2023-08-31T04:20:52;14.68;;;10.45;;
19339;SDS011;9804;52.350;6.684;2023-08-31T04:23:18;14.30;;;11.02;;
19339;SDS011;9804;52.350;6.684;2023-08-31T04:25:45;15.90;;;11.30;;
19339;SDS011;9804;52.350;6.684;2023-08-31T04:28:12;17.42;;;12.40;;
19339;SDS011;9804;52.350;6.684;2023-08-31T04:30:38;18.45;;;12.75;;
19339;SDS011;9804;52.350;6.684;2023-08-31T04:33:06;18.33;;;13.15;;
19339;SDS011;9804;52.350;6.684;2023-08-31T04:35:32;20.55;;;14.48;;
19339;SDS011;9804;52.350;6.684;2023-08-31T04:37:57;19.30;;;14.00;;
19339;SDS011;9804;52.350;6.684;2023-08-31T04:40:23;20.75;;;13.57;;
19339;SDS011;9804;52.350;6.684;2023-08-31T04:42:51;16.83;;;13.20;;
19339;SDS011;9804;52.350;6.684;2023-08-31T04:45:17;20.95;;;14.10;;
19339;SDS011;9804;52.350;6.684;2023-08-31T04:47:43;16.58;;;12.63;;
19339;SDS011;9804;52.350;6.684;2023-08-31T04:50:09;20.30;;;14.18;;
19339;SDS011;9804;52.350;6.684;2023-08-31T04:52:34;16.80;;;12.73;;
19339;SDS011;9804;52.350;6.684;2023-08-31T04:55:00;17.75;;;13.90;;
19339;SDS011;9804;52.350;6.684;2023-08-31T04:57:26;18.08;;;14.13;;
19339;SDS011;9804;52.350;6.684;2023-08-31T04:59:52;17.40;;;13.25;;
19339;SDS011;9804;52.350;6.684;2023-08-31T05:02:17;17.17;;;13.07;;
19339;SDS011;9804;52.350;6.684;2023-08-31T05:04:44;18.92;;;12.80;;
19339;SDS011;9804;52.350;6.684;2023-08-31T05:07:09;18.02;;;13.07;;
19339;SDS011;9804;52.350;6.684;2023-08-31T05:09:34;16.75;;;12.68;;
19339;SDS011;9804;52.350;6.684;2023-08-31T05:12:03;15.52;;;11.95;;
19339;SDS011;9804;52.350;6.684;2023-08-31T05:14:29;18.27;;;12.88;;
19339;SDS011;9804;52.350;6.684;2023-08-31T05:16:54;16.98;;;11.82;;
19339;SDS011;9804;52.350;6.684;2023-08-31T05:19:20;16.63;;;12.50;;
19339;SDS011;9804;52.350;6.684;2023-08-31T05:21:46;15.43;;;11.80;;
19339;SDS011;9804;52.350;6.684;2023-08-31T05:24:11;16.58;;;12.13;;
19339;SDS011;9804;52.350;6.684;2023-08-31T05:26:36;16.35;;;10.60;;
19339;SDS011;9804;52.350;6.684;2023-08-31T05:29:02;13.98;;;10.80;;
19339;SDS011;9804;52.350;6.684;2023-08-31T05:31:29;13.68;;;11.00;;
19339;SDS011;9804;52.350;6.684;2023-08-31T05:33:54;16.45;;;10.90;;
19339;SDS011;9804;52.350;6.684;2023-08-31T05:36:20;11.88;;;9.77;;
19339;SDS011;9804;52.350;6.684;2023-08-31T05:38:45;14.43;;;9.73;;
19339;SDS011;9804;52.350;6.684;2023-08-31T05:41:11;16.67;;;10.05;;
19339;SDS011;9804;52.350;6.684;2023-08-31T05:43:36;12.13;;;8.80;;
19339;SDS011;9804;52.350;6.684;2023-08-31T05:46:05;14.05;;;9.30;;
19339;SDS011;9804;52.350;6.684;2023-08-31T05:48:31;11.82;;;8.15;;
19339;SDS011;9804;52.350;6.684;2023-08-31T05:50:56;12.02;;;9.25;;
19339;SDS011;9804;52.350;6.684;2023-08-31T05:53:22;13.43;;;8.60;;
19339;SDS011;9804;52.350;6.684;2023-08-31T05:55:48;12.07;;;8.18;;
19339;SDS011;9804;52.350;6.684;2023-08-31T05:58:13;12.57;;;8.10;;
19339;SDS011;9804;52.350;6.684;2023-08-31T06:00:39;10.10;;;7.68;;
19339;SDS011;9804;52.350;6.684;2023-08-31T06:03:04;12.65;;;7.82;;
19339;SDS011;9804;52.350;6.684;2023-08-31T06:05:31;11.93;;;8.27;;
19339;SDS011;9804;52.350;6.684;2023-08-31T06:07:57;11.30;;;8.60;;
19339;SDS011;9804;52.350;6.684;2023-08-31T06:10:22;10.15;;;7.60;;
19339;SDS011;9804;52.350;6.684;2023-08-31T06:12:49;14.25;;;8.20;;
19339;SDS011;9804;52.350;6.684;2023-08-31T06:15:15;9.75;;;8.18;;
19339;SDS011;9804;52.350;6.684;2023-08-31T06:17:41;10.93;;;8.27;;
19339;SDS011;9804;52.350;6.684;2023-08-31T06:20:07;14.60;;;8.02;;
19339;SDS011;9804;52.350;6.684;2023-08-31T06:22:33;13.05;;;8.43;;
19339;SDS011;9804;52.350;6.684;2023-08-31T06:24:59;14.05;;;8.90;;
19339;SDS011;9804;52.350;6.684;2023-08-31T06:27:25;10.85;;;9.27;;
19339;SDS011;9804;52.350;6.684;2023-08-31T06:29:50;15.38;;;9.52;;
19339;SDS011;9804;52.350;6.684;2023-08-31T06:32:16;13.43;;;9.75;;
19339;SDS011;9804;52.350;6.684;2023-08-31T06:34:42;14.38;;;10.70;;
19339;SDS011;9804;52.350;6.684;2023-08-31T06:37:07;15.25;;;11.07;;
19339;SDS011;9804;52.350;6.684;2023-08-31T06:39:32;12.95;;;10.30;;
19339;SDS011;9804;52.350;6.684;2023-08-31T06:41:58;15.27;;;11.32;;
19339;SDS011;9804;52.350;6.684;2023-08-31T06:44:24;15.23;;;11.40;;
19339;SDS011;9804;52.350;6.684;2023-08-31T06:46:49;16.73;;;11.07;;
19339;SDS011;9804;52.350;6.684;2023-08-31T06:49:14;12.45;;;10.15;;
19339;SDS011;9804;52.350;6.684;2023-08-31T06:51:40;13.00;;;9.43;;
19339;SDS011;9804;52.350;6.684;2023-08-31T06:54:05;12.80;;;9.75;;
19339;SDS011;9804;52.350;6.684;2023-08-31T06:56:34;13.48;;;9.82;;
19339;SDS011;9804;52.350;6.684;2023-08-31T06:59:00;13.25;;;9.35;;
19339;SDS011;9804;52.350;6.684;2023-08-31T07:01:26;13.88;;;8.82;;
19339;SDS011;9804;52.350;6.684;2023-08-31T07:03:52;12.10;;;8.25;;
19339;SDS011;9804;52.350;6.684;2023-08-31T07:06:18;13.02;;;8.43;;
19339;SDS011;9804;52.350;6.684;2023-08-31T07:08:43;9.20;;;7.85;;
19339;SDS011;9804;52.350;6.684;2023-08-31T07:11:10;14.95;;;8.10;;
19339;SDS011;9804;52.350;6.684;2023-08-31T07:13:36;13.13;;;7.90;;
19339;SDS011;9804;52.350;6.684;2023-08-31T07:16:02;12.50;;;7.07;;
19339;SDS011;9804;52.350;6.684;2023-08-31T07:18:27;9.27;;;6.70;;
19339;SDS011;9804;52.350;6.684;2023-08-31T07:20:53;11.13;;;5.90;;
19339;SDS011;9804;52.350;6.684;2023-08-31T07:23:18;8.40;;;5.93;;
19339;SDS011;9804;52.350;6.684;2023-08-31T07:25:43;11.82;;;5.20;;
19339;SDS011;9804;52.350;6.684;2023-08-31T07:28:09;8.88;;;5.28;;
19339;SDS011;9804;52.350;6.684;2023-08-31T07:30:35;7.30;;;4.28;;
19339;SDS011;9804;52.350;6.684;2023-08-31T07:33:02;9.90;;;4.55;;
19339;SDS011;9804;52.350;6.684;2023-08-31T07:35:28;8.88;;;4.63;;
19339;SDS011;9804;52.350;6.684;2023-08-31T07:37:54;9.63;;;5.15;;
19339;SDS011;9804;52.350;6.684;2023-08-31T07:40:20;7.35;;;4.28;;
19339;SDS011;9804;52.350;6.684;2023-08-31T07:42:45;3.78;;;3.30;;
19339;SDS011;9804;52.350;6.684;2023-08-31T07:45:10;8.15;;;4.03;;
19339;SDS011;9804;52.350;6.684;2023-08-31T07:47:36;8.25;;;4.07;;
19339;SDS011;9804;52.350;6.684;2023-08-31T07:50:01;7.05;;;3.42;;
19339;SDS011;9804;52.350;6.684;2023-08-31T07:52:27;9.48;;;3.50;;
19339;SDS011;9804;52.350;6.684;2023-08-31T07:54:52;6.20;;;3.35;;
19339;SDS011;9804;52.350;6.684;2023-08-31T07:57:18;5.63;;;2.92;;
19339;SDS011;9804;52.350;6.684;2023-08-31T07:59:44;5.80;;;3.00;;
19339;SDS011;9804;52.350;6.684;2023-08-31T08:02:09;5.60;;;3.00;;
19339;SDS011;9804;52.350;6.684;2023-08-31T08:04:35;7.43;;;2.72;;
19339;SDS011;9804;52.350;6.684;2023-08-31T08:07:00;4.93;;;2.60;;
19339;SDS011;9804;52.350;6.684;2023-08-31T08:09:26;6.63;;;2.40;;
19339;SDS011;9804;52.350;6.684;2023-08-31T08:11:51;4.68;;;2.63;;
19339;SDS011;9804;52.350;6.684;2023-08-31T08:14:16;7.47;;;2.80;;
19339;SDS011;9804;52.350;6.684;2023-08-31T08:16:42;4.97;;;2.65;;
19339;SDS011;9804;52.350;6.684;2023-08-31T08:19:08;7.13;;;3.22;;
19339;SDS011;9804;52.350;6.684;2023-08-31T08:21:33;5.15;;;2.83;;
19339;SDS011;9804;52.350;6.684;2023-08-31T08:23:59;6.30;;;2.92;;
19339;SDS011;9804;52.350;6.684;2023-08-31T08:26:25;5.75;;;3.25;;
19339;SDS011;9804;52.350;6.684;2023-08-31T08:28:50;4.18;;;2.67;;
19339;SDS011;9804;52.350;6.684;2023-08-31T08:31:16;7.65;;;2.95;;
19339;SDS011;9804;52.350;6.684;2023-08-31T08:33:42;4.57;;;2.50;;
19339;SDS011;9804;52.350;6.684;2023-08-31T08:36:07;4.35;;;2.50;;
19339;SDS011;9804;52.350;6.684;2023-08-31T08:38:34;6.82;;;2.63;;
19339;SDS011;9804;52.350;6.684;2023-08-31T08:41:03;5.63;;;2.58;;
19339;SDS011;9804;52.350;6.684;2023-08-31T08:43:32;6.82;;;2.67;;
19339;SDS011;9804;52.350;6.684;2023-08-31T08:45:58;5.45;;;2.50;;
19339;SDS011;9804;52.350;6.684;2023-08-31T08:48:29;4.78;;;2.63;;
19339;SDS011;9804;52.350;6.684;2023-08-31T08:50:55;5.55;;;2.22;;
19339;SDS011;9804;52.350;6.684;2023-08-31T08:53:21;5.05;;;2.15;;
19339;SDS011;9804;52.350;6.684;2023-08-31T08:55:47;5.30;;;2.50;;
19339;SDS011;9804;52.350;6.684;2023-08-31T08:58:12;5.22;;;2.58;;
19339;SDS011;9804;52.350;6.684;2023-08-31T09:00:38;5.38;;;2.35;;
19339;SDS011;9804;52.350;6.684;2023-08-31T09:03:05;7.90;;;3.03;;
19339;SDS011;9804;52.350;6.684;2023-08-31T09:05:33;6.78;;;3.15;;
19339;SDS011;9804;52.350;6.684;2023-08-31T09:10:38;5.82;;;2.58;;
19339;SDS011;9804;52.350;6.684;2023-08-31T09:13:06;4.47;;;2.85;;
19339;SDS011;9804;52.350;6.684;2023-08-31T09:15:37;5.50;;;2.08;;
19339;SDS011;9804;52.350;6.684;2023-08-31T09:18:05;9.23;;;2.53;;
19339;SDS011;9804;52.350;6.684;2023-08-31T09:20:30;4.97;;;2.47;;
19339;SDS011;9804;52.350;6.684;2023-08-31T09:22:55;4.47;;;2.05;;
19339;SDS011;9804;52.350;6.684;2023-08-31T09:25:21;5.05;;;2.25;;
19339;SDS011;9804;52.350;6.684;2023-08-31T09:27:46;7.55;;;2.50;;
19339;SDS011;9804;52.350;6.684;2023-08-31T09:30:13;5.97;;;1.80;;
19339;SDS011;9804;52.350;6.684;2023-08-31T09:32:39;2.85;;;1.80;;
19339;SDS011;9804;52.350;6.684;2023-08-31T09:35:10;4.80;;;2.10;;
19339;SDS011;9804;52.350;6.684;2023-08-31T09:37:36;3.60;;;1.73;;
19339;SDS011;9804;52.350;6.684;2023-08-31T09:40:02;4.07;;;1.90;;
19339;SDS011;9804;52.350;6.684;2023-08-31T09:42:37;5.68;;;1.70;;
19339;SDS011;9804;52.350;6.684;2023-08-31T09:45:03;3.28;;;1.77;;
19339;SDS011;9804;52.350;6.684;2023-08-31T09:47:29;3.80;;;1.92;;
19339;SDS011;9804;52.350;6.684;2023-08-31T09:49:55;6.82;;;2.10;;
19339;SDS011;9804;52.350;6.684;2023-08-31T09:52:22;7.00;;;1.95;;
19339;SDS011;9804;52.350;6.684;2023-08-31T09:54:48;5.03;;;1.50;;
19339;SDS011;9804;52.350;6.684;2023-08-31T09:57:16;3.50;;;1.15;;
19339;SDS011;9804;52.350;6.684;2023-08-31T09:59:43;2.85;;;0.95;;
19339;SDS011;9804;52.350;6.684;2023-08-31T10:02:09;4.30;;;1.05;;
19339;SDS011;9804;52.350;6.684;2023-08-31T10:04:37;5.60;;;1.33;;
19339;SDS011;9804;52.350;6.684;2023-08-31T10:07:03;2.53;;;1.20;;
19339;SDS011;9804;52.350;6.684;2023-08-31T10:09:30;5.82;;;1.50;;
19339;SDS011;9804;52.350;6.684;2023-08-31T10:11:56;3.85;;;1.02;;
19339;SDS011;9804;52.350;6.684;2023-08-31T10:14:23;4.22;;;1.30;;
19339;SDS011;9804;52.350;6.684;2023-08-31T10:16:49;2.50;;;0.98;;
19339;SDS011;9804;52.350;6.684;2023-08-31T10:19:17;4.70;;;1.73;;
19339;SDS011;9804;52.350;6.684;2023-08-31T10:21:43;4.18;;;1.13;;
19339;SDS011;9804;52.350;6.684;2023-08-31T10:24:09;5.80;;;1.30;;
19339;SDS011;9804;52.350;6.684;2023-08-31T10:26:34;3.10;;;1.00;;
19339;SDS011;9804;52.350;6.684;2023-08-31T10:29:00;6.22;;;1.67;;
19339;SDS011;9804;52.350;6.684;2023-08-31T10:31:28;5.28;;;1.45;;
19339;SDS011;9804;52.350;6.684;2023-08-31T10:34:02;4.60;;;1.42;;
19339;SDS011;9804;52.350;6.684;2023-08-31T10:39:04;6.00;;;1.63;;
19339;SDS011;9804;52.350;6.684;2023-08-31T10:41:37;5.88;;;1.63;;
19339;SDS011;9804;52.350;6.684;2023-08-31T10:44:17;5.97;;;1.63;;
19339;SDS011;9804;52.350;6.684;2023-08-31T10:46:43;4.00;;;1.40;;
19339;SDS011;9804;52.350;6.684;2023-08-31T10:51:34;4.53;;;0.85;;
19339;SDS011;9804;52.350;6.684;2023-08-31T10:54:06;4.85;;;1.30;;
19339;SDS011;9804;52.350;6.684;2023-08-31T10:59:16;2.28;;;0.90;;
19339;SDS011;9804;52.350;6.684;2023-08-31T11:01:58;3.28;;;1.02;;
19339;SDS011;9804;52.350;6.684;2023-08-31T11:04:26;2.83;;;1.13;;
19339;SDS011;9804;52.350;6.684;2023-08-31T11:12:54;8.10;;;1.40;;
19339;SDS011;9804;52.350;6.684;2023-08-31T11:15:22;4.28;;;1.25;;
19339;SDS011;9804;52.350;6.684;2023-08-31T11:17:51;3.97;;;0.90;;
19339;SDS011;9804;52.350;6.684;2023-08-31T11:20:17;4.90;;;1.08;;
19339;SDS011;9804;52.350;6.684;2023-08-31T11:22:48;4.38;;;0.93;;
19339;SDS011;9804;52.350;6.684;2023-08-31T11:25:15;2.63;;;0.57;;
19339;SDS011;9804;52.350;6.684;2023-08-31T11:27:42;3.78;;;0.90;;
19339;SDS011;9804;52.350;6.684;2023-08-31T11:30:17;2.88;;;0.85;;
19339;SDS011;9804;52.350;6.684;2023-08-31T11:32:44;4.20;;;0.77;;
19339;SDS011;9804;52.350;6.684;2023-08-31T11:35:14;1.13;;;0.60;;
19339;SDS011;9804;52.350;6.684;2023-08-31T11:37:41;6.45;;;1.02;;
19339;SDS011;9804;52.350;6.684;2023-08-31T11:40:07;2.10;;;0.65;;
19339;SDS011;9804;52.350;6.684;2023-08-31T11:42:33;6.18;;;1.23;;
19339;SDS011;9804;52.350;6.684;2023-08-31T11:44:59;3.75;;;1.50;;
19339;SDS011;9804;52.350;6.684;2023-08-31T11:47:25;1.92;;;0.85;;
19339;SDS011;9804;52.350;6.684;2023-08-31T11:49:51;5.70;;;0.90;;
19339;SDS011;9804;52.350;6.684;2023-08-31T11:52:16;4.50;;;1.50;;
19339;SDS011;9804;52.350;6.684;2023-08-31T11:54:42;5.60;;;1.30;;
19339;SDS011;9804;52.350;6.684;2023-08-31T11:57:08;4.22;;;1.15;;
19339;SDS011;9804;52.350;6.684;2023-08-31T11:59:35;7.03;;;1.08;;
19339;SDS011;9804;52.350;6.684;2023-08-31T12:02:04;3.00;;;0.90;;
19339;SDS011;9804;52.350;6.684;2023-08-31T12:04:31;6.82;;;1.30;;
19339;SDS011;9804;52.350;6.684;2023-08-31T12:07:01;6.35;;;1.30;;
19339;SDS011;9804;52.350;6.684;2023-08-31T12:09:31;6.93;;;1.35;;
19339;SDS011;9804;52.350;6.684;2023-08-31T12:11:57;6.80;;;1.40;;
19339;SDS011;9804;52.350;6.684;2023-08-31T12:14:23;7.43;;;1.30;;
19339;SDS011;9804;52.350;6.684;2023-08-31T12:16:50;5.63;;;1.35;;
19339;SDS011;9804;52.350;6.684;2023-08-31T12:19:16;5.32;;;1.40;;
19339;SDS011;9804;52.350;6.684;2023-08-31T12:21:43;3.45;;;1.20;;
19339;SDS011;9804;52.350;6.684;2023-08-31T12:24:10;4.35;;;1.23;;
19339;SDS011;9804;52.350;6.684;2023-08-31T12:26:35;5.07;;;1.02;;
19339;SDS011;9804;52.350;6.684;2023-08-31T12:29:01;5.18;;;0.90;;
19339;SDS011;9804;52.350;6.684;2023-08-31T12:31:29;4.97;;;0.95;;
19339;SDS011;9804;52.350;6.684;2023-08-31T12:33:55;7.88;;;1.65;;
19339;SDS011;9804;52.350;6.684;2023-08-31T12:36:20;9.60;;;1.70;;
19339;SDS011;9804;52.350;6.684;2023-08-31T12:38:45;7.47;;;1.40;;
19339;SDS011;9804;52.350;6.684;2023-08-31T12:41:11;2.65;;;1.10;;
19339;SDS011;9804;52.350;6.684;2023-08-31T12:43:37;3.28;;;1.10;;
19339;SDS011;9804;52.350;6.684;2023-08-31T12:46:04;1.70;;;0.70;;
19339;SDS011;9804;52.350;6.684;2023-08-31T12:48:31;5.72;;;1.10;;
19339;SDS011;9804;52.350;6.684;2023-08-31T12:50:57;3.95;;;1.08;;
19339;SDS011;9804;52.350;6.684;2023-08-31T12:53:23;5.75;;;1.20;;
19339;SDS011;9804;52.350;6.684;2023-08-31T12:55:48;3.80;;;1.40;;
19339;SDS011;9804;52.350;6.684;2023-08-31T12:58:14;4.50;;;1.42;;
19339;SDS011;9804;52.350;6.684;2023-08-31T13:00:40;4.80;;;1.55;;
19339;SDS011;9804;52.350;6.684;2023-08-31T13:03:08;4.35;;;1.50;;
19339;SDS011;9804;52.350;6.684;2023-08-31T13:05:34;7.30;;;1.98;;
19339;SDS011;9804;52.350;6.684;2023-08-31T13:07:59;4.70;;;1.48;;
19339;SDS011;9804;52.350;6.684;2023-08-31T13:10:24;8.05;;;1.80;;
19339;SDS011;9804;52.350;6.684;2023-08-31T13:12:50;4.93;;;1.20;;
19339;SDS011;9804;52.350;6.684;2023-08-31T13:15:15;9.35;;;1.40;;
19339;SDS011;9804;52.350;6.684;2023-08-31T13:17:41;3.58;;;1.55;;
19339;SDS011;9804;52.350;6.684;2023-08-31T13:20:06;3.90;;;1.30;;
19339;SDS011;9804;52.350;6.684;2023-08-31T13:22:33;6.28;;;1.30;;
19339;SDS011;9804;52.350;6.684;2023-08-31T13:24:59;6.95;;;1.52;;
19339;SDS011;9804;52.350;6.684;2023-08-31T13:27:24;7.82;;;1.52;;
19339;SDS011;9804;52.350;6.684;2023-08-31T13:29:50;2.90;;;1.10;;
19339;SDS011;9804;52.350;6.684;2023-08-31T13:32:17;7.03;;;1.27;;
19339;SDS011;9804;52.350;6.684;2023-08-31T13:34:43;5.45;;;1.42;;
19339;SDS011;9804;52.350;6.684;2023-08-31T13:37:08;6.20;;;1.42;;
19339;SDS011;9804;52.350;6.684;2023-08-31T13:39:34;8.40;;;1.70;;
19339;SDS011;9804;52.350;6.684;2023-08-31T13:42:05;4.57;;;1.15;;
19339;SDS011;9804;52.350;6.684;2023-08-31T13:44:31;4.82;;;1.20;;
19339;SDS011;9804;52.350;6.684;2023-08-31T13:46:57;5.90;;;0.90;;
19339;SDS011;9804;52.350;6.684;2023-08-31T13:49:22;5.60;;;1.23;;
19339;SDS011;9804;52.350;6.684;2023-08-31T13:51:48;4.90;;;1.08;;
19339;SDS011;9804;52.350;6.684;2023-08-31T13:54:13;8.07;;;1.30;;
19339;SDS011;9804;52.350;6.684;2023-08-31T13:56:39;5.78;;;1.73;;
19339;SDS011;9804;52.350;6.684;2023-08-31T13:59:04;3.78;;;1.20;;
19339;SDS011;9804;52.350;6.684;2023-08-31T14:01:30;5.20;;;1.20;;
19339;SDS011;9804;52.350;6.684;2023-08-31T14:03:55;6.70;;;1.45;;
19339;SDS011;9804;52.350;6.684;2023-08-31T14:06:21;7.40;;;1.27;;
19339;SDS011;9804;52.350;6.684;2023-08-31T14:08:46;8.05;;;1.70;;
19339;SDS011;9804;52.350;6.684;2023-08-31T14:11:13;5.60;;;1.20;;
19339;SDS011;9804;52.350;6.684;2023-08-31T14:13:39;5.55;;;1.67;;
19339;SDS011;9804;52.350;6.684;2023-08-31T14:16:04;2.75;;;1.27;;
19339;SDS011;9804;52.350;6.684;2023-08-31T14:18:30;2.70;;;0.63;;
19339;SDS011;9804;52.350;6.684;2023-08-31T14:20:57;5.43;;;1.20;;
19339;SDS011;9804;52.350;6.684;2023-08-31T14:23:24;5.03;;;1.13;;
19339;SDS011;9804;52.350;6.684;2023-08-31T14:25:49;6.10;;;1.23;;
19339;SDS011;9804;52.350;6.684;2023-08-31T14:28:15;8.27;;;1.23;;
19339;SDS011;9804;52.350;6.684;2023-08-31T14:30:40;4.47;;;1.23;;
19339;SDS011;9804;52.350;6.684;2023-08-31T14:33:05;4.95;;;1.20;;
19339;SDS011;9804;52.350;6.684;2023-08-31T14:35:31;8.38;;;1.60;;
19339;SDS011;9804;52.350;6.684;2023-08-31T14:37:56;4.70;;;1.17;;
19339;SDS011;9804;52.350;6.684;2023-08-31T14:40:23;4.40;;;1.30;;
19339;SDS011;9804;52.350;6.684;2023-08-31T14:42:48;7.50;;;2.20;;
19339;SDS011;9804;52.350;6.684;2023-08-31T14:45:14;5.00;;;1.30;;
19339;SDS011;9804;52.350;6.684;2023-08-31T14:47:39;4.85;;;1.33;;
19339;SDS011;9804;52.350;6.684;2023-08-31T14:50:05;6.00;;;1.52;;
19339;SDS011;9804;52.350;6.684;2023-08-31T14:52:31;8.95;;;1.80;;
19339;SDS011;9804;52.350;6.684;2023-08-31T14:54:57;5.45;;;1.50;;
19339;SDS011;9804;52.350;6.684;2023-08-31T14:57:22;8.63;;;1.30;;
19339;SDS011;9804;52.350;6.684;2023-08-31T14:59:48;8.07;;;1.40;;
19339;SDS011;9804;52.350;6.684;2023-08-31T15:02:15;4.32;;;1.40;;
19339;SDS011;9804;52.350;6.684;2023-08-31T15:04:41;4.03;;;1.48;;
19339;SDS011;9804;52.350;6.684;2023-08-31T15:07:06;5.88;;;1.50;;
19339;SDS011;9804;52.350;6.684;2023-08-31T15:09:32;7.20;;;1.40;;
19339;SDS011;9804;52.350;6.684;2023-08-31T15:11:57;3.60;;;0.98;;